createdAt,value
2019-03-25T00:02:18.163Z,6.97
2019-03-25T00:04:46.613Z,6.95
2019-03-25T00:07:15.038Z,6.90
2019-03-25T00:09:43.441Z,7.62
2019-03-25T00:12:11.828Z,8.58
2019-03-25T00:14:40.209Z,7.93
2019-03-25T00:17:08.645Z,6.87
2019-03-25T00:19:37.057Z,8.33
2019-03-25T00:22:05.429Z,8.93
2019-03-25T00:24:38.589Z,6.97
2019-03-25T00:27:03.870Z,7.33
2019-03-25T00:29:32.286Z,7.53
2019-03-25T00:32:00.694Z,6.53
2019-03-25T00:34:29.099Z,6.77
2019-03-25T00:36:57.485Z,6.45
2019-03-25T00:39:26.043Z,7.87
2019-03-25T00:41:55.577Z,6.60
2019-03-25T00:44:23.993Z,6.50
2019-03-25T00:46:52.406Z,5.67
2019-03-25T00:49:20.811Z,6.75
2019-03-25T00:51:49.187Z,6.13
2019-03-25T00:54:17.568Z,6.70
2019-03-25T00:56:45.981Z,5.47
2019-03-25T00:59:14.397Z,6.07
2019-03-25T01:01:42.770Z,6.13
2019-03-25T01:04:11.214Z,7.10
2019-03-25T01:06:39.667Z,7.43
2019-03-25T01:09:08.033Z,6.40
2019-03-25T01:11:36.446Z,6.80
2019-03-25T01:14:04.870Z,6.60
2019-03-25T01:16:33.361Z,6.17
2019-03-25T01:19:01.742Z,6.55
2019-03-25T01:21:30.158Z,6.60
2019-03-25T01:23:58.595Z,7.72
2019-03-25T01:26:27.002Z,6.95
2019-03-25T01:28:55.406Z,6.23
2019-03-25T01:31:23.859Z,8.53
2019-03-25T01:33:52.279Z,9.45
2019-03-25T01:36:20.696Z,8.35
2019-03-25T01:38:49.174Z,8.70
2019-03-25T01:41:17.543Z,8.48
2019-03-25T01:43:45.923Z,8.33
2019-03-25T01:46:14.339Z,8.13
2019-03-25T01:48:42.712Z,8.68
2019-03-25T01:51:11.121Z,8.90
2019-03-25T01:53:39.546Z,8.53
2019-03-25T01:56:07.945Z,8.30
2019-03-25T01:58:36.407Z,8.43
2019-03-25T02:01:04.801Z,7.10
2019-03-25T02:03:33.239Z,7.90
2019-03-25T02:06:01.641Z,7.85
2019-03-25T02:08:30.033Z,7.73
2019-03-25T02:10:58.446Z,9.33
2019-03-25T02:13:26.881Z,8.90
2019-03-25T02:15:55.286Z,8.50
2019-03-25T02:18:23.660Z,8.73
2019-03-25T02:20:52.066Z,7.43
2019-03-25T02:23:20.474Z,9.10
2019-03-25T02:25:48.853Z,8.27
2019-03-25T02:28:17.264Z,9.03
2019-03-25T02:30:45.639Z,9.03
2019-03-25T02:33:14.004Z,8.67
2019-03-25T02:35:42.410Z,9.60
2019-03-25T02:38:10.809Z,8.00
2019-03-25T02:40:39.246Z,8.07
2019-03-25T02:43:07.618Z,8.90
2019-03-25T02:45:36.045Z,8.60
2019-03-25T02:48:04.431Z,7.63
2019-03-25T02:50:32.835Z,8.77
2019-03-25T02:53:01.347Z,9.37
2019-03-25T02:55:41.274Z,8.15
2019-03-25T02:57:59.762Z,8.00
2019-03-25T03:00:35.706Z,8.97
2019-03-25T03:03:05.184Z,9.45
2019-03-25T03:05:33.687Z,8.70
2019-03-25T03:08:02.086Z,7.33
2019-03-25T03:10:30.519Z,7.80
2019-03-25T03:12:58.925Z,8.90
2019-03-25T03:15:27.408Z,7.60
2019-03-25T03:17:56.295Z,8.03
2019-03-25T03:20:25.832Z,7.78
2019-03-25T03:22:54.208Z,9.18
2019-03-25T03:25:22.665Z,8.50
2019-03-25T03:27:51.020Z,7.77
2019-03-25T03:30:19.417Z,7.00
2019-03-25T03:32:47.902Z,7.78
2019-03-25T03:35:16.298Z,7.00
2019-03-25T03:37:44.705Z,7.93
2019-03-25T03:40:13.152Z,7.77
2019-03-25T03:42:41.572Z,8.00
2019-03-25T03:45:09.974Z,7.37
2019-03-25T03:47:38.373Z,7.63
2019-03-25T03:50:08.420Z,8.13
2019-03-25T03:52:36.835Z,7.22
2019-03-25T03:55:06.131Z,7.73
2019-03-25T04:00:02.519Z,7.12
2019-03-25T04:02:30.922Z,8.05
2019-03-25T04:04:59.333Z,7.70
2019-03-25T04:07:27.760Z,8.60
2019-03-25T04:09:56.171Z,10.53
2019-03-25T04:12:24.569Z,8.33
2019-03-25T04:14:53.002Z,8.17
2019-03-25T04:17:21.429Z,8.87
2019-03-25T04:19:49.860Z,8.20
2019-03-25T04:22:18.234Z,9.10
2019-03-25T04:24:46.685Z,11.23
2019-03-25T04:27:15.090Z,11.87
2019-03-25T04:29:43.507Z,13.50
2019-03-25T04:32:12.056Z,10.03
2019-03-25T04:34:40.535Z,8.28
2019-03-25T04:37:08.915Z,7.25
2019-03-25T04:39:37.313Z,6.37
2019-03-25T04:42:05.751Z,7.67
2019-03-25T04:44:34.153Z,6.87
2019-03-25T04:47:02.563Z,9.80
2019-03-25T04:49:30.994Z,7.70
2019-03-25T04:51:59.386Z,7.17
2019-03-25T04:54:27.795Z,8.00
2019-03-25T04:56:56.232Z,7.83
2019-03-25T04:59:24.634Z,8.20
2019-03-25T05:01:53.000Z,6.63
2019-03-25T05:04:21.494Z,6.70
2019-03-25T05:06:49.816Z,7.20
2019-03-25T05:09:18.161Z,6.50
2019-03-25T05:11:46.582Z,7.00
2019-03-25T05:14:15.035Z,7.62
2019-03-25T05:16:43.459Z,7.70
2019-03-25T05:19:11.862Z,6.87
2019-03-25T05:21:40.233Z,7.77
2019-03-25T05:24:08.755Z,8.77
2019-03-25T05:26:37.141Z,7.17
2019-03-25T05:29:05.606Z,7.57
2019-03-25T05:31:33.962Z,6.67
2019-03-25T05:34:02.365Z,6.97
2019-03-25T05:36:30.824Z,8.93
2019-03-25T05:38:59.235Z,6.77
2019-03-25T05:41:27.680Z,6.77
2019-03-25T05:43:56.162Z,6.70
2019-03-25T05:46:24.645Z,6.92
2019-03-25T05:48:53.034Z,8.17
2019-03-25T05:51:21.416Z,6.70
2019-03-25T05:53:49.875Z,7.35
2019-03-25T05:56:18.272Z,7.47
2019-03-25T05:58:46.738Z,7.93
2019-03-25T06:01:15.370Z,7.80
2019-03-25T06:03:43.802Z,5.92
2019-03-25T06:06:12.282Z,7.43
2019-03-25T06:08:40.657Z,7.67
2019-03-25T06:11:09.029Z,7.30
2019-03-25T06:13:37.439Z,7.43
2019-03-25T06:16:05.838Z,6.87
2019-03-25T06:18:34.238Z,7.70
2019-03-25T06:21:02.647Z,7.83
2019-03-25T06:23:31.045Z,7.85
2019-03-25T06:25:59.520Z,7.70
2019-03-25T06:28:27.882Z,7.60
2019-03-25T06:30:56.272Z,8.45
2019-03-25T06:33:24.653Z,7.62
2019-03-25T06:35:53.054Z,7.83
2019-03-25T06:38:21.483Z,6.80
2019-03-25T06:40:49.891Z,6.75
2019-03-25T06:43:18.297Z,6.83
2019-03-25T06:45:46.712Z,5.43
2019-03-25T06:48:15.163Z,5.37
2019-03-25T06:50:43.563Z,5.97
2019-03-25T06:53:12.019Z,7.20
2019-03-25T06:55:40.393Z,6.33
2019-03-25T06:58:08.821Z,6.40
2019-03-25T07:00:37.251Z,6.50
2019-03-25T07:03:05.706Z,8.20
2019-03-25T07:05:34.133Z,6.93
2019-03-25T07:08:02.675Z,6.67
2019-03-25T07:10:32.720Z,6.22
2019-03-25T07:13:01.520Z,6.75
2019-03-25T07:15:29.913Z,6.95
2019-03-25T07:17:58.469Z,6.30
2019-03-25T07:20:26.875Z,6.47
2019-03-25T07:22:55.401Z,6.55
2019-03-25T07:25:23.790Z,7.05
2019-03-25T07:27:52.189Z,6.03
2019-03-25T07:30:20.624Z,6.40
2019-03-25T07:32:49.035Z,6.07
2019-03-25T07:35:17.465Z,5.65
2019-03-25T07:37:45.880Z,6.92
2019-03-25T07:40:14.253Z,7.17
2019-03-25T07:42:43.002Z,6.00
2019-03-25T07:45:11.833Z,5.72
2019-03-25T07:47:40.227Z,5.08
2019-03-25T07:50:08.634Z,5.33
2019-03-25T07:52:37.039Z,6.58
2019-03-25T07:55:06.273Z,4.90
2019-03-25T07:57:35.023Z,7.47
2019-03-25T08:00:14.246Z,5.55
2019-03-25T08:02:42.874Z,4.90
2019-03-25T08:05:11.290Z,5.28
2019-03-25T08:07:39.695Z,4.42
2019-03-25T08:10:08.285Z,4.50
2019-03-25T08:12:36.779Z,4.72
2019-03-25T08:15:06.945Z,4.70
2019-03-25T08:17:35.330Z,4.87
2019-03-25T08:20:06.573Z,4.30
2019-03-25T08:22:34.980Z,4.20
2019-03-25T08:25:04.213Z,5.12
2019-03-25T08:27:32.726Z,4.58
2019-03-25T08:30:01.138Z,5.17
2019-03-25T08:32:29.664Z,4.67
2019-03-25T08:34:58.122Z,4.53
2019-03-25T08:37:26.492Z,5.20
2019-03-25T08:39:54.867Z,5.37
2019-03-25T08:42:23.380Z,4.83
2019-03-25T08:44:51.860Z,4.10
2019-03-25T08:47:20.449Z,5.03
2019-03-25T08:49:48.844Z,4.80
2019-03-25T08:52:17.316Z,4.72
2019-03-25T08:54:45.788Z,3.93
2019-03-25T08:57:14.207Z,6.20
2019-03-25T08:59:42.613Z,5.22
2019-03-25T09:02:11.022Z,4.27
2019-03-25T09:04:39.449Z,5.37
2019-03-25T09:07:07.831Z,3.37
2019-03-25T09:09:36.258Z,3.80
2019-03-25T09:12:04.776Z,3.67
2019-03-25T09:14:33.229Z,4.87
2019-03-25T09:17:01.631Z,4.30
2019-03-25T09:19:30.688Z,4.67
2019-03-25T09:21:59.337Z,4.05
2019-03-25T09:24:27.721Z,4.60
2019-03-25T09:26:56.108Z,4.60
2019-03-25T09:29:24.519Z,14.35
2019-03-25T09:31:52.965Z,7.28
2019-03-25T09:34:21.357Z,5.13
2019-03-25T09:36:49.770Z,5.80
2019-03-25T09:39:18.173Z,9.95
2019-03-25T09:41:46.577Z,3.92
2019-03-25T09:44:14.960Z,3.08
2019-03-25T09:46:43.334Z,3.50
2019-03-25T09:49:11.760Z,4.35
2019-03-25T09:51:40.221Z,4.15
2019-03-25T09:54:08.664Z,3.87
2019-03-25T09:56:37.113Z,4.40
2019-03-25T09:59:05.492Z,4.87
2019-03-25T10:01:33.892Z,4.60
2019-03-25T10:04:02.324Z,4.90
2019-03-25T10:06:30.739Z,4.25
2019-03-25T10:08:59.142Z,4.15
2019-03-25T10:11:27.563Z,3.73
2019-03-25T10:13:56.001Z,3.55
2019-03-25T10:16:24.430Z,3.43
2019-03-25T10:18:52.843Z,4.70
2019-03-25T10:21:21.254Z,4.85
2019-03-25T10:23:49.680Z,4.10
2019-03-25T10:26:18.086Z,4.45
2019-03-25T10:28:48.803Z,5.03
2019-03-25T10:31:17.546Z,5.37
2019-03-25T10:33:46.019Z,6.83
2019-03-25T10:36:14.393Z,7.87
2019-03-25T10:38:42.908Z,6.95
2019-03-25T10:41:11.325Z,6.97
2019-03-25T10:43:39.730Z,4.15
2019-03-25T10:46:08.105Z,6.40
2019-03-25T10:48:36.622Z,4.05
2019-03-25T10:51:04.998Z,5.17
2019-03-25T10:53:33.375Z,3.62
2019-03-25T10:56:01.765Z,3.90
2019-03-25T10:58:30.099Z,3.37
2019-03-25T11:00:58.519Z,2.85
2019-03-25T11:03:26.999Z,3.13
2019-03-25T11:05:55.365Z,3.25
2019-03-25T11:08:23.775Z,4.42
2019-03-25T11:10:52.191Z,3.40
2019-03-25T11:13:20.567Z,4.35
2019-03-25T11:15:48.965Z,4.40
2019-03-25T11:18:17.469Z,3.30
2019-03-25T11:20:45.905Z,4.10
2019-03-25T11:23:14.319Z,3.67
2019-03-25T11:25:42.718Z,4.17
2019-03-25T11:28:12.336Z,4.10
2019-03-25T11:30:51.779Z,4.25
2019-03-25T11:33:20.219Z,3.72
2019-03-25T11:35:48.618Z,4.37
2019-03-25T11:38:17.020Z,3.58
2019-03-25T11:40:45.480Z,3.77
2019-03-25T11:43:13.844Z,3.50
2019-03-25T11:45:42.280Z,4.03
2019-03-25T11:48:11.070Z,2.90
2019-03-25T11:50:39.493Z,2.92
2019-03-25T11:53:07.895Z,2.80
2019-03-25T11:55:36.293Z,3.25
2019-03-25T11:58:04.842Z,3.52
2019-03-25T12:00:33.244Z,5.40
2019-03-25T12:03:01.650Z,4.72
2019-03-25T12:05:30.058Z,5.15
2019-03-25T12:07:58.491Z,6.08
2019-03-25T12:10:26.901Z,7.40
2019-03-25T12:12:55.298Z,7.42
2019-03-25T12:15:23.713Z,3.98
2019-03-25T12:17:52.120Z,3.17
2019-03-25T12:20:20.521Z,4.97
2019-03-25T12:22:48.920Z,3.10
2019-03-25T12:25:17.367Z,2.80
2019-03-25T12:27:45.904Z,2.13
2019-03-25T12:30:14.290Z,2.33
2019-03-25T12:32:42.691Z,2.85
2019-03-25T12:35:11.097Z,3.63
2019-03-25T12:37:39.506Z,3.08
2019-03-25T12:40:08.185Z,2.70
2019-03-25T12:42:36.642Z,3.40
2019-03-25T12:45:06.789Z,3.58
2019-03-25T12:47:35.165Z,4.10
2019-03-25T12:50:04.685Z,4.00
2019-03-25T12:52:33.101Z,3.62
2019-03-25T12:55:01.507Z,3.60
2019-03-25T12:57:29.908Z,4.17
2019-03-25T12:59:58.300Z,2.70
2019-03-25T13:02:26.680Z,2.60
2019-03-25T13:04:55.090Z,3.67
2019-03-25T13:07:23.522Z,2.67
2019-03-25T13:09:51.895Z,3.35
2019-03-25T13:12:20.398Z,2.73
2019-03-25T13:14:48.879Z,2.43
2019-03-25T13:17:17.269Z,2.87
2019-03-25T13:19:45.741Z,4.63
2019-03-25T13:22:14.206Z,2.53
2019-03-25T13:24:42.616Z,4.10
2019-03-25T13:27:10.978Z,2.63
2019-03-25T13:29:39.350Z,1.87
2019-03-25T13:32:07.753Z,2.70
2019-03-25T13:34:36.125Z,3.50
2019-03-25T13:37:04.525Z,2.92
2019-03-25T13:39:32.927Z,2.50
2019-03-25T13:42:01.455Z,2.67
2019-03-25T13:44:29.858Z,2.40
2019-03-25T13:46:58.262Z,3.00
2019-03-25T13:49:26.663Z,2.40
2019-03-25T13:51:55.071Z,2.83
2019-03-25T13:54:23.445Z,2.25
2019-03-25T13:56:51.860Z,2.08
2019-03-25T13:59:20.249Z,2.80
2019-03-25T14:01:48.627Z,1.85
2019-03-25T14:04:17.031Z,2.10
2019-03-25T14:06:45.400Z,2.67
2019-03-25T14:09:13.842Z,2.60
2019-03-25T14:11:42.236Z,3.50
2019-03-25T14:14:10.671Z,2.80
2019-03-25T14:16:39.069Z,4.70
2019-03-25T14:19:07.473Z,4.10
2019-03-25T14:21:35.884Z,3.95
2019-03-25T14:24:04.321Z,5.27
2019-03-25T14:26:32.681Z,5.12
2019-03-25T14:29:01.097Z,2.87
2019-03-25T14:31:29.501Z,3.60
2019-03-25T14:33:57.906Z,4.05
2019-03-25T14:36:26.301Z,3.60
2019-03-25T14:38:54.702Z,3.08
2019-03-25T14:41:23.082Z,4.10
2019-03-25T14:43:51.494Z,4.13
2019-03-25T14:46:19.895Z,4.37
2019-03-25T14:48:48.269Z,4.03
2019-03-25T14:51:16.775Z,3.40
2019-03-25T14:53:45.605Z,4.13
2019-03-25T14:56:14.044Z,4.25
2019-03-25T14:58:42.446Z,3.50
2019-03-25T15:01:10.856Z,4.17
2019-03-25T15:03:39.234Z,3.17
2019-03-25T15:06:07.635Z,3.45
2019-03-25T15:08:36.002Z,3.63
2019-03-25T15:11:04.376Z,5.58
2019-03-25T15:13:32.773Z,3.23
2019-03-25T15:16:01.275Z,4.85
2019-03-25T15:18:29.641Z,4.47
2019-03-25T15:20:58.133Z,5.53
2019-03-25T15:23:26.617Z,5.93
2019-03-25T15:25:55.013Z,3.90
2019-03-25T15:28:23.430Z,3.77
2019-03-25T15:30:51.880Z,3.60
2019-03-25T15:33:20.335Z,3.07
2019-03-25T15:35:48.771Z,3.80
2019-03-25T15:38:17.227Z,4.43
2019-03-25T15:40:45.671Z,2.97
2019-03-25T15:43:14.054Z,5.67
2019-03-25T15:45:42.399Z,3.67
2019-03-25T15:48:10.913Z,4.10
2019-03-25T15:50:39.308Z,4.77
2019-03-25T15:53:07.709Z,4.43
2019-03-25T15:55:36.046Z,7.47
2019-03-25T15:58:04.425Z,10.03
2019-03-25T16:00:32.831Z,11.17
2019-03-25T16:03:01.242Z,10.03
2019-03-25T16:05:29.618Z,8.88
2019-03-25T16:07:58.015Z,4.43
2019-03-25T16:10:26.393Z,3.33
2019-03-25T16:12:54.810Z,7.75
2019-03-25T16:15:38.359Z,8.60
2019-03-25T16:18:09.667Z,8.38
2019-03-25T16:20:38.038Z,8.13
2019-03-25T16:23:06.444Z,8.90
2019-03-25T16:25:34.918Z,17.77
2019-03-25T16:28:03.349Z,13.50
2019-03-25T16:30:31.760Z,12.33
2019-03-25T16:33:00.158Z,11.00
2019-03-25T16:35:28.597Z,13.63
2019-03-25T16:37:57.008Z,21.60
2019-03-25T16:40:25.494Z,9.37
2019-03-25T16:42:53.934Z,16.50
2019-03-25T16:45:22.358Z,10.63
2019-03-25T16:47:50.870Z,10.13
2019-03-25T16:50:19.265Z,10.35
2019-03-25T16:52:47.677Z,9.53
2019-03-25T16:55:16.182Z,10.07
2019-03-25T16:57:44.578Z,9.98
2019-03-25T17:00:12.963Z,11.57
2019-03-25T17:02:41.425Z,10.00
2019-03-25T17:05:09.900Z,9.30
2019-03-25T17:07:38.354Z,11.57
2019-03-25T17:10:06.758Z,11.90
2019-03-25T17:12:35.155Z,10.83
2019-03-25T17:15:04.797Z,9.53
2019-03-25T17:17:33.287Z,14.53
2019-03-25T17:20:01.838Z,10.40
2019-03-25T17:22:30.250Z,11.07
2019-03-25T17:24:58.681Z,12.47
2019-03-25T17:27:27.150Z,12.10
2019-03-25T17:29:55.560Z,13.83
2019-03-25T17:32:23.963Z,16.57
2019-03-25T17:34:52.390Z,17.53
2019-03-25T17:37:20.849Z,21.63
2019-03-25T17:39:49.238Z,8.50
2019-03-25T17:42:17.731Z,11.57
2019-03-25T17:44:46.132Z,16.25
2019-03-25T17:47:14.721Z,14.63
2019-03-25T17:49:43.093Z,16.80
2019-03-25T17:52:11.502Z,33.60
2019-03-25T17:54:40.026Z,33.67
2019-03-25T17:57:08.437Z,12.60
2019-03-25T17:59:37.794Z,10.48
2019-03-25T18:02:06.321Z,14.67
2019-03-25T18:04:34.729Z,33.48
2019-03-25T18:07:03.156Z,13.60
2019-03-25T18:09:31.567Z,7.30
2019-03-25T18:11:59.933Z,8.83
2019-03-25T18:14:28.421Z,10.63
2019-03-25T18:16:56.823Z,9.57
2019-03-25T18:19:25.233Z,10.80
2019-03-25T18:21:53.865Z,9.13
2019-03-25T18:24:22.213Z,6.03
2019-03-25T18:26:50.692Z,10.60
2019-03-25T18:29:19.094Z,8.03
2019-03-25T18:31:47.517Z,6.17
2019-03-25T18:34:15.891Z,8.43
2019-03-25T18:36:44.412Z,3.93
2019-03-25T18:39:12.782Z,6.80
2019-03-25T18:41:41.156Z,8.10
2019-03-25T18:44:09.645Z,5.60
2019-03-25T18:46:38.014Z,8.20
2019-03-25T18:49:06.374Z,7.10
2019-03-25T18:51:35.995Z,8.38
2019-03-25T18:54:04.582Z,9.70
2019-03-25T18:56:33.079Z,7.90
2019-03-25T18:59:01.484Z,9.25
2019-03-25T19:01:29.866Z,6.67
2019-03-25T19:03:58.302Z,8.43
2019-03-25T19:06:26.674Z,6.90
2019-03-25T19:08:55.109Z,7.30
2019-03-25T19:11:31.020Z,7.50
2019-03-25T19:13:53.574Z,7.33
2019-03-25T19:16:22.055Z,6.03
2019-03-25T19:18:50.443Z,3.90
2019-03-25T19:21:18.896Z,4.40
2019-03-25T19:23:47.313Z,6.47
2019-03-25T19:26:15.740Z,6.60
2019-03-25T19:28:44.105Z,6.30
2019-03-25T19:31:12.514Z,6.47
2019-03-25T19:33:40.917Z,6.12
2019-03-25T19:36:09.384Z,6.70
2019-03-25T19:38:37.822Z,6.58
2019-03-25T19:41:06.254Z,12.10
2019-03-25T19:43:34.655Z,4.20
2019-03-25T19:46:03.064Z,4.60
2019-03-25T19:48:31.619Z,6.75
2019-03-25T19:51:00.009Z,5.10
2019-03-25T19:53:28.414Z,4.70
2019-03-25T19:55:56.825Z,4.20
2019-03-25T19:58:25.154Z,3.33
2019-03-25T20:00:53.549Z,4.28
2019-03-25T20:03:21.942Z,5.33
2019-03-25T20:05:50.311Z,5.23
2019-03-25T20:08:18.804Z,7.03
2019-03-25T20:10:47.276Z,6.22
2019-03-25T20:13:15.754Z,8.40
2019-03-25T20:15:46.539Z,6.27
2019-03-25T20:18:14.222Z,7.50
2019-03-25T20:20:42.625Z,7.10
2019-03-25T20:23:11.106Z,6.67
2019-03-25T20:25:39.495Z,6.33
2019-03-25T20:28:07.912Z,5.45
2019-03-25T20:30:36.324Z,12.07
2019-03-25T20:33:04.706Z,5.43
2019-03-25T20:35:33.229Z,6.00
2019-03-25T20:38:01.607Z,3.95
2019-03-25T20:40:30.062Z,4.55
2019-03-25T20:42:58.449Z,4.20
2019-03-25T20:45:26.862Z,3.63
2019-03-25T20:47:55.309Z,5.33
2019-03-25T20:50:23.819Z,3.60
2019-03-25T20:52:52.253Z,4.28
2019-03-25T20:55:20.640Z,3.63
2019-03-25T20:57:49.018Z,4.63
2019-03-25T21:00:20.653Z,4.37
2019-03-25T21:02:49.063Z,3.22
2019-03-25T21:05:17.580Z,5.37
2019-03-25T21:07:46.016Z,5.83
2019-03-25T21:10:14.459Z,6.97
2019-03-25T21:12:42.895Z,6.42
2019-03-25T21:15:11.422Z,6.47
2019-03-25T21:17:39.803Z,5.42
2019-03-25T21:20:08.978Z,4.50
2019-03-25T21:22:37.381Z,6.05
2019-03-25T21:25:06.817Z,4.70
2019-03-25T21:27:35.214Z,4.40
2019-03-25T21:30:05.049Z,5.45
2019-03-25T21:32:33.476Z,3.83
2019-03-25T21:35:01.902Z,6.33
2019-03-25T21:37:30.380Z,7.45
2019-03-25T21:39:58.761Z,7.83
2019-03-25T21:42:29.115Z,6.37
2019-03-25T21:44:57.204Z,5.78
2019-03-25T21:47:25.576Z,5.03
2019-03-25T21:49:53.995Z,3.70
2019-03-25T21:52:22.581Z,3.52
2019-03-25T21:54:51.101Z,3.30
2019-03-25T21:57:19.604Z,3.43
2019-03-25T21:59:48.005Z,3.50
2019-03-25T22:02:16.523Z,3.00
2019-03-25T22:04:44.909Z,3.20
2019-03-25T22:07:13.338Z,3.15
2019-03-25T22:09:41.853Z,2.73
2019-03-25T22:12:10.241Z,2.70
2019-03-25T22:14:38.658Z,3.27
2019-03-25T22:17:07.135Z,3.47
2019-03-25T22:19:35.494Z,2.75
2019-03-25T22:22:03.895Z,3.17
2019-03-25T22:24:32.416Z,4.23
2019-03-25T22:27:00.821Z,2.98
2019-03-25T22:29:29.194Z,3.33
2019-03-25T22:31:57.603Z,3.73
2019-03-25T22:34:25.985Z,3.20
2019-03-25T22:36:54.369Z,2.63
2019-03-25T22:39:22.777Z,2.63
2019-03-25T22:41:51.153Z,4.10
2019-03-25T22:44:19.566Z,3.07
2019-03-25T22:46:47.978Z,2.42
2019-03-25T22:49:16.348Z,3.10
2019-03-25T22:51:44.769Z,2.97
2019-03-25T22:54:13.173Z,3.97
2019-03-25T22:56:41.568Z,3.73
2019-03-25T22:59:09.938Z,2.87
2019-03-25T23:01:38.665Z,2.60
2019-03-25T23:04:07.006Z,3.27
2019-03-25T23:06:35.496Z,3.17
2019-03-25T23:09:05.848Z,3.75
2019-03-25T23:11:34.262Z,3.87
2019-03-25T23:14:02.676Z,5.28
2019-03-25T23:16:31.101Z,4.17
2019-03-25T23:18:59.501Z,4.07
2019-03-25T23:21:27.902Z,4.33
2019-03-25T23:23:56.332Z,4.47
2019-03-25T23:26:24.762Z,3.57
2019-03-25T23:28:53.160Z,2.73
2019-03-25T23:31:21.591Z,2.63
2019-03-25T23:33:52.524Z,2.37
2019-03-25T23:36:20.132Z,2.98
2019-03-25T23:38:48.565Z,2.85
2019-03-25T23:41:16.958Z,2.60
2019-03-25T23:43:45.380Z,2.97
2019-03-25T23:46:13.801Z,2.55
2019-03-25T23:48:42.177Z,2.10
2019-03-25T23:51:10.765Z,3.93
2019-03-25T23:53:39.168Z,4.55
2019-03-25T23:56:07.581Z,2.53
2019-03-25T23:58:35.988Z,3.33
